createdAt,value
2018-04-10T00:03:24.319Z,16.83
2018-04-10T00:08:26.881Z,16.00
2018-04-10T00:13:29.664Z,12.60
2018-04-10T00:18:32.213Z,19.83
2018-04-10T00:23:37.380Z,23.03
2018-04-10T00:28:40.449Z,15.40
2018-04-10T00:33:43.024Z,17.43
2018-04-10T00:38:45.596Z,12.47
2018-04-10T00:43:48.848Z,14.00
2018-04-10T00:48:51.632Z,13.70
2018-04-10T00:53:54.651Z,10.63
2018-04-10T00:58:57.228Z,18.27
2018-04-10T01:03:59.816Z,9.33
2018-04-10T01:09:02.661Z,11.27
2018-04-10T01:14:12.168Z,9.17
2018-04-10T01:19:15.191Z,12.03
2018-04-10T01:24:18.618Z,12.83
2018-04-10T01:29:21.176Z,9.90
2018-04-10T01:34:24.179Z,18.00
2018-04-10T01:39:26.740Z,12.73
2018-04-10T01:44:29.303Z,21.40
2018-04-10T01:49:31.887Z,21.50
2018-04-10T01:54:35.040Z,20.73
2018-04-10T01:59:38.035Z,18.50
2018-04-10T02:04:40.601Z,23.33
2018-04-10T02:09:43.163Z,17.40
2018-04-10T02:14:46.622Z,18.07
2018-04-10T02:19:49.183Z,19.73
2018-04-10T02:24:51.740Z,18.50
2018-04-10T02:29:54.844Z,17.87
2018-04-10T02:34:59.876Z,19.27
2018-04-10T02:40:03.040Z,12.30
2018-04-10T02:45:07.164Z,19.90
2018-04-10T02:50:09.957Z,12.67
2018-04-10T02:55:13.072Z,15.23
2018-04-10T03:00:15.626Z,19.50
2018-04-10T03:05:18.336Z,16.00
2018-04-10T03:10:21.469Z,15.73
2018-04-10T03:15:24.014Z,13.60
2018-04-10T03:20:26.563Z,21.20
2018-04-10T03:25:29.147Z,14.67
2018-04-10T03:30:31.732Z,14.20
2018-04-10T03:35:34.309Z,11.97
2018-04-10T03:40:36.876Z,15.00
2018-04-10T03:45:39.440Z,13.17
2018-04-10T03:50:41.998Z,16.93
2018-04-10T03:55:44.578Z,16.27
2018-04-10T04:00:47.156Z,16.80
2018-04-10T04:05:49.933Z,18.10
2018-04-10T04:10:52.514Z,18.10
2018-04-10T04:15:55.076Z,23.83
2018-04-10T04:21:09.935Z,28.13
2018-04-10T04:26:12.507Z,25.83
2018-04-10T04:31:15.063Z,29.17
2018-04-10T04:36:18.132Z,25.93
2018-04-10T04:41:21.188Z,20.87
2018-04-10T04:46:24.230Z,24.73
2018-04-10T04:51:26.794Z,23.10
2018-04-10T04:56:31.995Z,26.90
2018-04-10T05:01:35.351Z,20.60
2018-04-10T05:06:37.904Z,23.80
2018-04-10T05:11:40.463Z,27.83
2018-04-10T05:16:43.624Z,22.47
2018-04-10T05:21:46.193Z,19.47
2018-04-10T05:26:48.772Z,22.97
2018-04-10T05:31:51.343Z,20.43
2018-04-10T05:36:53.913Z,21.70
2018-04-10T05:41:56.494Z,13.37
2018-04-10T05:46:59.066Z,27.43
2018-04-10T05:52:02.273Z,20.30
2018-04-10T05:57:05.326Z,22.70
2018-04-10T06:02:07.913Z,27.63
2018-04-10T06:07:10.617Z,30.73
2018-04-10T06:12:13.827Z,23.83
2018-04-10T06:17:17.037Z,25.13
2018-04-10T06:22:30.396Z,40.27
2018-04-10T06:27:33.601Z,28.97
2018-04-10T06:32:36.652Z,23.70
2018-04-10T06:37:40.039Z,24.13
2018-04-10T06:42:43.072Z,36.57
2018-04-10T06:47:45.895Z,26.93
2018-04-10T06:52:48.469Z,29.80
2018-04-10T06:57:51.049Z,31.40
2018-04-10T07:02:53.740Z,30.20
2018-04-10T07:07:56.654Z,35.60
2018-04-10T07:12:59.190Z,28.43
2018-04-10T07:18:01.745Z,24.53
2018-04-10T07:23:04.756Z,27.00
2018-04-10T07:28:07.768Z,27.87
2018-04-10T07:33:10.493Z,28.60
2018-04-10T07:38:13.615Z,30.87
2018-04-10T07:43:16.179Z,25.40
2018-04-10T07:48:18.748Z,23.17
2018-04-10T07:53:21.469Z,21.97
2018-04-10T07:58:24.032Z,26.77
2018-04-10T08:03:26.654Z,28.70
2018-04-10T08:08:30.240Z,26.17
2018-04-10T08:13:33.094Z,23.57
2018-04-10T08:18:35.662Z,29.83
2018-04-10T08:23:38.710Z,27.77
2018-04-10T08:28:41.287Z,19.27
2018-04-10T08:33:43.846Z,22.83
2018-04-10T08:38:46.991Z,22.93
2018-04-10T08:43:49.879Z,18.47
2018-04-10T08:48:52.640Z,24.37
2018-04-10T08:53:55.371Z,23.20
2018-04-10T08:58:58.402Z,25.70
2018-04-10T09:04:02.064Z,20.13
2018-04-10T09:09:05.435Z,21.80
2018-04-10T09:14:10.779Z,24.60
2018-04-10T09:19:14.550Z,24.07
2018-04-10T09:24:17.135Z,23.57
2018-04-10T09:29:20.578Z,26.80
2018-04-10T09:34:23.146Z,24.00
2018-04-10T09:39:29.383Z,28.47
2018-04-10T09:44:31.946Z,33.53
2018-04-10T09:49:34.533Z,23.33
2018-04-10T09:54:37.104Z,23.30
2018-04-10T09:59:39.687Z,23.93
2018-04-10T10:04:42.379Z,30.03
2018-04-10T10:09:46.252Z,21.40
2018-04-10T10:14:48.828Z,23.10
2018-04-10T10:19:51.397Z,27.53
2018-04-10T10:24:53.970Z,26.07
2018-04-10T10:29:56.528Z,28.27
2018-04-10T10:35:02.460Z,24.10
2018-04-10T10:40:05.216Z,23.50
2018-04-10T10:45:07.783Z,25.00
2018-04-10T10:50:10.352Z,24.80
2018-04-10T10:55:12.903Z,14.63
2018-04-10T11:00:15.903Z,18.80
2018-04-10T11:05:18.698Z,15.93
2018-04-10T11:10:21.253Z,10.80
2018-04-10T11:15:23.829Z,22.37
2018-04-10T11:20:26.401Z,14.07
2018-04-10T11:25:28.962Z,9.20
2018-04-10T11:30:32.093Z,10.73
2018-04-10T11:35:34.656Z,8.07
2018-04-10T11:40:37.230Z,7.40
2018-04-10T11:45:39.825Z,7.37
2018-04-10T11:50:42.385Z,5.67
2018-04-10T11:55:44.943Z,7.70
2018-04-10T12:00:47.505Z,7.63
2018-04-10T12:05:50.074Z,6.70
2018-04-10T12:10:52.648Z,5.03
2018-04-10T12:15:57.676Z,6.30
2018-04-10T12:21:00.244Z,5.43
2018-04-10T12:26:02.819Z,7.00
2018-04-10T12:31:05.377Z,7.10
2018-04-10T12:36:08.407Z,5.60
2018-04-10T12:41:10.988Z,4.10
2018-04-10T12:46:13.555Z,2.20
2018-04-10T12:51:16.124Z,3.27
2018-04-10T12:56:19.447Z,5.10
2018-04-10T13:01:22.011Z,10.70
2018-04-10T13:06:24.559Z,1.90
2018-04-10T13:11:27.143Z,4.20
2018-04-10T13:16:29.717Z,3.77
2018-04-10T13:21:32.280Z,3.00
2018-04-10T13:26:34.867Z,5.03
2018-04-10T13:31:37.424Z,3.00
2018-04-10T13:36:39.995Z,5.60
2018-04-10T13:41:42.548Z,20.67
2018-04-10T13:46:47.075Z,27.90
2018-04-10T13:51:49.644Z,20.23
2018-04-10T13:56:52.983Z,14.33
2018-04-10T14:01:57.982Z,15.80
2018-04-10T14:07:02.166Z,9.00
2018-04-10T14:12:04.708Z,6.60
2018-04-10T14:17:07.287Z,10.00
2018-04-10T14:22:10.144Z,8.57
2018-04-10T14:27:12.703Z,9.77
2018-04-10T14:32:15.251Z,6.77
2018-04-10T14:37:20.119Z,11.63
2018-04-10T14:42:22.703Z,7.30
2018-04-10T14:47:25.659Z,7.60
2018-04-10T14:52:28.494Z,8.53
2018-04-10T14:57:31.700Z,5.30
2018-04-10T15:02:34.271Z,5.90
2018-04-10T15:07:36.851Z,5.63
2018-04-10T15:12:39.415Z,10.20
2018-04-10T15:17:41.979Z,3.90
2018-04-10T15:22:44.566Z,4.77
2018-04-10T15:27:47.122Z,9.47
2018-04-10T15:32:49.681Z,4.87
2018-04-10T15:37:52.689Z,5.83
2018-04-10T15:42:55.239Z,4.10
2018-04-10T15:47:58.633Z,4.07
2018-04-10T15:53:01.459Z,4.10
2018-04-10T15:58:04.012Z,5.47
2018-04-10T16:03:06.575Z,7.23
2018-04-10T16:08:09.754Z,4.60
2018-04-10T16:13:12.343Z,2.10
2018-04-10T16:18:14.894Z,2.20
2018-04-10T16:23:17.484Z,1.60
2018-04-10T16:28:20.035Z,1.60
2018-04-10T16:33:23.284Z,5.23
2018-04-10T16:38:25.834Z,3.10
2018-04-10T16:43:28.421Z,4.10
2018-04-10T16:48:31.606Z,8.40
2018-04-10T16:53:34.156Z,1.87
2018-04-10T16:58:37.569Z,2.23
2018-04-10T17:03:40.137Z,6.57
2018-04-10T17:08:42.688Z,2.80
2018-04-10T17:13:45.850Z,1.80
2018-04-10T17:18:48.983Z,2.77
2018-04-10T17:23:51.566Z,6.93
2018-04-10T17:28:55.250Z,4.67
2018-04-10T17:33:57.813Z,3.80
2018-04-10T17:39:00.385Z,3.43
2018-04-10T17:44:02.944Z,3.60
2018-04-10T17:49:07.902Z,2.13
2018-04-10T17:54:14.182Z,3.60
2018-04-10T17:59:17.424Z,3.33
2018-04-10T18:04:19.975Z,6.00
2018-04-10T18:09:23.840Z,2.40
2018-04-10T18:14:26.626Z,1.87
2018-04-10T18:19:31.766Z,2.20
2018-04-10T18:24:34.343Z,5.03
2018-04-10T18:29:38.016Z,3.17
2018-04-10T18:34:40.575Z,2.70
2018-04-10T18:39:43.147Z,1.90
2018-04-10T18:44:45.734Z,3.73
2018-04-10T18:49:49.003Z,3.13
2018-04-10T18:54:54.914Z,3.93
2018-04-10T18:59:57.918Z,2.50
2018-04-10T19:05:00.478Z,3.37
2018-04-10T19:10:03.048Z,2.63
2018-04-10T19:15:05.601Z,3.53
2018-04-10T19:20:08.225Z,4.73
2018-04-10T19:25:11.132Z,4.10
2018-04-10T19:30:13.932Z,5.10
2018-04-10T19:35:17.182Z,3.97
2018-04-10T19:40:19.791Z,3.10
2018-04-10T19:45:22.786Z,2.63
2018-04-10T19:50:25.359Z,3.60
2018-04-10T19:55:28.609Z,3.53
2018-04-10T20:00:32.019Z,1.60
2018-04-10T20:05:35.031Z,1.70
2018-04-10T20:10:37.582Z,1.87
2018-04-10T20:15:40.328Z,3.97
2018-04-10T20:20:43.455Z,5.10
2018-04-10T20:25:46.668Z,2.60
2018-04-10T20:30:49.236Z,2.03
2018-04-10T20:35:51.808Z,1.80
2018-04-10T20:40:54.376Z,2.00
2018-04-10T20:45:56.928Z,1.50
2018-04-10T20:50:59.480Z,1.40
2018-04-10T20:56:02.070Z,2.30
2018-04-10T21:01:04.624Z,5.73
2018-04-10T21:06:07.754Z,2.37
2018-04-10T21:11:10.342Z,5.60
2018-04-10T21:16:12.914Z,2.97
2018-04-10T21:21:15.454Z,3.13
2018-04-10T21:26:18.100Z,7.00
2018-04-10T21:31:21.394Z,2.53
2018-04-10T21:36:24.587Z,2.63
2018-04-10T21:41:27.695Z,2.80
2018-04-10T21:46:30.956Z,2.90
2018-04-10T21:51:33.511Z,6.43
2018-04-10T21:56:36.491Z,2.53
2018-04-10T22:01:39.390Z,4.47
2018-04-10T22:06:42.233Z,7.00
2018-04-10T22:11:45.178Z,3.00
2018-04-10T22:16:48.343Z,4.20
2018-04-10T22:21:51.167Z,3.83
2018-04-10T22:26:54.034Z,4.80
2018-04-10T22:31:56.649Z,3.33
2018-04-10T22:36:59.846Z,4.60
2018-04-10T22:42:02.419Z,2.87
2018-04-10T22:47:05.238Z,3.50
2018-04-10T22:52:08.044Z,4.70
2018-04-10T22:57:11.169Z,4.83
2018-04-10T23:02:13.755Z,5.90
2018-04-10T23:07:16.320Z,5.70
2018-04-10T23:12:19.476Z,5.00
2018-04-10T23:17:22.066Z,3.20
2018-04-10T23:22:24.636Z,3.90
2018-04-10T23:27:28.179Z,2.90
2018-04-10T23:32:30.740Z,5.23
2018-04-10T23:37:33.311Z,2.10
2018-04-10T23:42:35.894Z,4.93
2018-04-10T23:47:38.454Z,5.43
2018-04-10T23:52:43.831Z,5.20
2018-04-10T23:57:47.137Z,4.97
